sensor_id;sensor_type;location;lat;lon;timestamp;pressure;altitude;pressure_sealevel;temperature;humidity
55187;BME280;55457;52.002;5.464;2023-12-04T00:00:32;101064.16;;;20.34;41.36
55187;BME280;55457;52.002;5.464;2023-12-04T00:02:58;101064.16;;;20.34;41.48
55187;BME280;55457;52.002;5.464;2023-12-04T00:05:23;101070.38;;;20.34;41.22
55187;BME280;55457;52.002;5.464;2023-12-04T00:07:48;101066.84;;;20.34;41.21
55187;BME280;55457;52.002;5.464;2023-12-04T00:10:14;101064.16;;;20.34;41.50
55187;BME280;55457;52.002;5.464;2023-12-04T00:12:39;101053.56;;;20.32;41.29
55187;BME280;55457;52.002;5.464;2023-12-04T00:15:05;101050.03;;;20.32;41.27
55187;BME280;55457;52.002;5.464;2023-12-04T00:17:30;101045.44;;;20.32;41.48
55187;BME280;55457;52.002;5.464;2023-12-04T00:19:56;101043.56;;;20.33;41.31
55187;BME280;55457;52.002;5.464;2023-12-04T00:22:21;101038.63;;;20.30;41.53
55187;BME280;55457;52.002;5.464;2023-12-04T00:24:48;101038.41;;;20.31;41.27
55187;BME280;55457;52.002;5.464;2023-12-04T00:27:14;101029.47;;;20.31;41.46
55187;BME280;55457;52.002;5.464;2023-12-04T00:29:39;101031.31;;;20.30;41.51
55187;BME280;55457;52.002;5.464;2023-12-04T00:32:05;101030.50;;;20.30;41.67
55187;BME280;55457;52.002;5.464;2023-12-04T00:34:30;101019.66;;;20.30;41.24
55187;BME280;55457;52.002;5.464;2023-12-04T00:36:55;101018.03;;;20.29;41.01
55187;BME280;55457;52.002;5.464;2023-12-04T00:39:21;101019.66;;;20.30;41.40
55187;BME280;55457;52.002;5.464;2023-12-04T00:41:46;101008.03;;;20.29;41.50
55187;BME280;55457;52.002;5.464;2023-12-04T00:44:11;101013.69;;;20.28;41.45
55187;BME280;55457;52.002;5.464;2023-12-04T00:46:36;101001.78;;;20.29;41.43
55187;BME280;55457;52.002;5.464;2023-12-04T00:49:02;101012.63;;;20.29;41.50
55187;BME280;55457;52.002;5.464;2023-12-04T00:51:27;101007.44;;;20.27;41.38
55187;BME280;55457;52.002;5.464;2023-12-04T00:53:53;101010.41;;;20.26;41.69
55187;BME280;55457;52.002;5.464;2023-12-04T00:56:18;101008.28;;;20.28;41.61
55187;BME280;55457;52.002;5.464;2023-12-04T00:58:45;101004.75;;;20.27;41.55
55187;BME280;55457;52.002;5.464;2023-12-04T01:01:11;101004.13;;;20.25;41.74
55187;BME280;55457;52.002;5.464;2023-12-04T01:03:37;101002.28;;;20.26;41.87
55187;BME280;55457;52.002;5.464;2023-12-04T01:06:03;101001.44;;;20.25;41.83
55187;BME280;55457;52.002;5.464;2023-12-04T01:08:28;101001.44;;;20.25;41.77
55187;BME280;55457;52.002;5.464;2023-12-04T01:10:54;101000.63;;;20.25;41.81
55187;BME280;55457;52.002;5.464;2023-12-04T01:13:19;100987.09;;;20.25;41.58
55187;BME280;55457;52.002;5.464;2023-12-04T01:15:45;100993.56;;;20.24;41.80
55187;BME280;55457;52.002;5.464;2023-12-04T01:18:11;100985.44;;;20.24;41.62
55187;BME280;55457;52.002;5.464;2023-12-04T01:20:37;100978.97;;;20.25;41.52
55187;BME280;55457;52.002;5.464;2023-12-04T01:23:02;100977.31;;;20.24;41.54
55187;BME280;55457;52.002;5.464;2023-12-04T01:25:27;100964.28;;;20.21;41.64
55187;BME280;55457;52.002;5.464;2023-12-04T01:27:52;100972.72;;;20.24;41.81
55187;BME280;55457;52.002;5.464;2023-12-04T01:30:18;100970.84;;;20.25;41.77
55187;BME280;55457;52.002;5.464;2023-12-04T01:32:43;100961.91;;;20.24;41.20
55187;BME280;55457;52.002;5.464;2023-12-04T01:35:08;100969.81;;;20.26;41.62
55187;BME280;55457;52.002;5.464;2023-12-04T01:37:34;100971.66;;;20.25;41.56
55187;BME280;55457;52.002;5.464;2023-12-04T01:39:59;100962.72;;;20.25;41.66
55187;BME280;55457;52.002;5.464;2023-12-04T01:42:25;100958.97;;;20.26;41.75
55187;BME280;55457;52.002;5.464;2023-12-04T01:44:50;100952.41;;;20.22;41.56
55187;BME280;55457;52.002;5.464;2023-12-04T01:47:16;100957.31;;;20.25;41.63
55187;BME280;55457;52.002;5.464;2023-12-04T01:49:42;100957.91;;;20.27;41.41
55187;BME280;55457;52.002;5.464;2023-12-04T01:52:08;100952.72;;;20.25;41.50
55187;BME280;55457;52.002;5.464;2023-12-04T01:54:34;100956.03;;;20.27;41.36
55187;BME280;55457;52.002;5.464;2023-12-04T01:57:01;100950.63;;;20.27;41.26
55187;BME280;55457;52.002;5.464;2023-12-04T01:59:27;100955.78;;;20.29;41.44
55187;BME280;55457;52.002;5.464;2023-12-04T02:01:52;100942.16;;;20.24;41.50
55187;BME280;55457;52.002;5.464;2023-12-04T02:04:18;100939.78;;;20.27;41.38
55187;BME280;55457;52.002;5.464;2023-12-04T02:06:43;100937.66;;;20.29;41.36
55187;BME280;55457;52.002;5.464;2023-12-04T02:09:09;100933.88;;;20.30;41.57
55187;BME280;55457;52.002;5.464;2023-12-04T02:11:38;100929.53;;;20.29;41.38
55187;BME280;55457;52.002;5.464;2023-12-04T02:14:04;100926.63;;;20.31;41.38
55187;BME280;55457;52.002;5.464;2023-12-04T02:16:30;100925.53;;;20.32;41.30
55187;BME280;55457;52.002;5.464;2023-12-04T02:18:57;100923.41;;;20.34;41.38
55187;BME280;55457;52.002;5.464;2023-12-04T02:21:22;100932.34;;;20.34;41.16
55187;BME280;55457;52.002;5.464;2023-12-04T02:23:49;100915.28;;;20.34;41.24
55187;BME280;55457;52.002;5.464;2023-12-04T02:26:16;100915.03;;;20.36;41.35
55187;BME280;55457;52.002;5.464;2023-12-04T02:28:46;100916.69;;;20.37;41.23
55187;BME280;55457;52.002;5.464;2023-12-04T02:31:16;100909.41;;;20.37;41.41
55187;BME280;55457;52.002;5.464;2023-12-04T02:33:43;100902.91;;;20.38;41.25
55187;BME280;55457;52.002;5.464;2023-12-04T02:36:10;100901.84;;;20.39;41.52
55187;BME280;55457;52.002;5.464;2023-12-04T02:38:37;100898.06;;;20.40;41.20
55187;BME280;55457;52.002;5.464;2023-12-04T02:41:03;100881.25;;;20.38;41.26
55187;BME280;55457;52.002;5.464;2023-12-04T02:43:28;100888.66;;;20.43;41.30
55187;BME280;55457;52.002;5.464;2023-12-04T02:45:54;100877.00;;;20.42;41.24
55187;BME280;55457;52.002;5.464;2023-12-04T02:48:19;100875.69;;;20.45;41.48
55187;BME280;55457;52.002;5.464;2023-12-04T02:50:44;100872.75;;;20.46;41.40
55187;BME280;55457;52.002;5.464;2023-12-04T02:53:10;100863.59;;;20.47;40.91
55187;BME280;55457;52.002;5.464;2023-12-04T02:55:35;100870.66;;;20.48;41.20
55187;BME280;55457;52.002;5.464;2023-12-04T02:58:00;100867.94;;;20.48;41.12
55187;BME280;55457;52.002;5.464;2023-12-04T03:00:26;100863.34;;;20.49;40.94
55187;BME280;55457;52.002;5.464;2023-12-04T03:02:51;100858.75;;;20.49;41.21
55187;BME280;55457;52.002;5.464;2023-12-04T03:05:17;100862.28;;;20.50;41.09
55187;BME280;55457;52.002;5.464;2023-12-04T03:07:44;100852.53;;;20.49;41.28
55187;BME280;55457;52.002;5.464;2023-12-04T03:10:10;100850.63;;;20.49;41.22
55187;BME280;55457;52.002;5.464;2023-12-04T03:12:36;100848.50;;;20.51;40.97
55187;BME280;55457;52.002;5.464;2023-12-04T03:15:01;100841.44;;;20.50;40.96
55187;BME280;55457;52.002;5.464;2023-12-04T03:17:27;100844.16;;;20.50;41.08
55187;BME280;55457;52.002;5.464;2023-12-04T03:19:52;100833.31;;;20.50;41.12
55187;BME280;55457;52.002;5.464;2023-12-04T03:22:17;100825.72;;;20.47;40.82
55187;BME280;55457;52.002;5.464;2023-12-04T03:24:43;100829.53;;;20.51;40.83
55187;BME280;55457;52.002;5.464;2023-12-04T03:27:08;100829.53;;;20.51;40.93
55187;BME280;55457;52.002;5.464;2023-12-04T03:29:33;100826.03;;;20.51;40.98
55187;BME280;55457;52.002;5.464;2023-12-04T03:31:59;100824.13;;;20.51;41.06
55187;BME280;55457;52.002;5.464;2023-12-04T03:34:24;100820.59;;;20.51;40.86
55187;BME280;55457;52.002;5.464;2023-12-04T03:36:49;100821.41;;;20.51;41.19
55187;BME280;55457;52.002;5.464;2023-12-04T03:39:15;100812.25;;;20.52;41.00
55187;BME280;55457;52.002;5.464;2023-12-04T03:41:40;100810.59;;;20.51;40.92
55187;BME280;55457;52.002;5.464;2023-12-04T03:44:05;100810.59;;;20.51;40.90
55187;BME280;55457;52.002;5.464;2023-12-04T03:46:31;100805.19;;;20.51;41.16
55187;BME280;55457;52.002;5.464;2023-12-04T03:48:56;100806.03;;;20.52;41.13
55187;BME280;55457;52.002;5.464;2023-12-04T03:51:21;100802.47;;;20.51;41.01
55187;BME280;55457;52.002;5.464;2023-12-04T03:53:47;100805.19;;;20.51;41.16
55187;BME280;55457;52.002;5.464;2023-12-04T03:56:12;100801.44;;;20.52;41.23
55187;BME280;55457;52.002;5.464;2023-12-04T03:58:38;100779.19;;;20.50;41.01
55187;BME280;55457;52.002;5.464;2023-12-04T04:01:04;100782.69;;;20.51;41.00
55187;BME280;55457;52.002;5.464;2023-12-04T04:03:29;100776.47;;;20.50;41.15
55187;BME280;55457;52.002;5.464;2023-12-04T04:05:54;100775.41;;;20.51;40.92
55187;BME280;55457;52.002;5.464;2023-12-04T04:08:20;100770.84;;;20.52;40.89
55187;BME280;55457;52.002;5.464;2023-12-04T04:10:45;100771.66;;;20.52;40.97
55187;BME280;55457;52.002;5.464;2023-12-04T04:13:10;100768.94;;;20.52;40.88
55187;BME280;55457;52.002;5.464;2023-12-04T04:15:36;100763.53;;;20.52;41.05
55187;BME280;55457;52.002;5.464;2023-12-04T04:18:01;100761.84;;;20.51;40.78
55187;BME280;55457;52.002;5.464;2023-12-04T04:20:26;100760.81;;;20.52;40.99
55187;BME280;55457;52.002;5.464;2023-12-04T04:22:52;100758.94;;;20.53;41.03
55187;BME280;55457;52.002;5.464;2023-12-04T04:25:18;100752.69;;;20.52;40.89
55187;BME280;55457;52.002;5.464;2023-12-04T04:27:44;100746.22;;;20.53;40.85
55187;BME280;55457;52.002;5.464;2023-12-04T04:30:09;100752.69;;;20.52;40.75
55187;BME280;55457;52.002;5.464;2023-12-04T04:32:35;100748.09;;;20.53;40.92
55187;BME280;55457;52.002;5.464;2023-12-04T04:35:01;100748.91;;;20.53;40.84
55187;BME280;55457;52.002;5.464;2023-12-04T04:37:26;100734.78;;;20.51;40.84
55187;BME280;55457;52.002;5.464;2023-12-04T04:39:52;100747.28;;;20.52;40.79
55187;BME280;55457;52.002;5.464;2023-12-04T04:42:17;100751.03;;;20.51;40.75
55187;BME280;55457;52.002;5.464;2023-12-04T04:44:42;100748.31;;;20.51;40.69
55187;BME280;55457;52.002;5.464;2023-12-04T04:47:08;100746.69;;;20.50;40.79
55187;BME280;55457;52.002;5.464;2023-12-04T04:49:33;100740.47;;;20.50;40.86
55187;BME280;55457;52.002;5.464;2023-12-04T04:51:58;100740.72;;;20.48;40.95
55187;BME280;55457;52.002;5.464;2023-12-04T04:54:24;100742.34;;;20.49;40.54
55187;BME280;55457;52.002;5.464;2023-12-04T04:56:49;100745.88;;;20.50;40.91
55187;BME280;55457;52.002;5.464;2023-12-04T04:59:14;100741.53;;;20.49;40.63
55187;BME280;55457;52.002;5.464;2023-12-04T05:01:40;100729.63;;;20.50;40.53
55187;BME280;55457;52.002;5.464;2023-12-04T05:04:05;100727.19;;;20.48;40.52
55187;BME280;55457;52.002;5.464;2023-12-04T05:06:30;100725.28;;;20.49;40.50
55187;BME280;55457;52.002;5.464;2023-12-04T05:08:56;100729.06;;;20.48;40.44
55187;BME280;55457;52.002;5.464;2023-12-04T05:11:21;100721.75;;;20.48;40.42
55187;BME280;55457;52.002;5.464;2023-12-04T05:13:47;100728.25;;;20.47;40.61
55187;BME280;55457;52.002;5.464;2023-12-04T05:16:13;100717.44;;;20.47;40.70
55187;BME280;55457;52.002;5.464;2023-12-04T05:18:38;100720.13;;;20.47;40.27
55187;BME280;55457;52.002;5.464;2023-12-04T05:21:11;100713.06;;;20.46;40.61
55187;BME280;55457;52.002;5.464;2023-12-04T05:23:37;100719.50;;;20.45;40.59
55187;BME280;55457;52.002;5.464;2023-12-04T05:26:02;100714.09;;;20.45;40.55
55187;BME280;55457;52.002;5.464;2023-12-04T05:28:28;100708.69;;;20.45;40.33
55187;BME280;55457;52.002;5.464;2023-12-04T05:30:53;100713.06;;;20.46;40.27
55187;BME280;55457;52.002;5.464;2023-12-04T05:33:19;100702.22;;;20.46;40.38
55187;BME280;55457;52.002;5.464;2023-12-04T05:35:45;100697.03;;;20.45;40.68
55187;BME280;55457;52.002;5.464;2023-12-04T05:38:11;100685.38;;;20.44;40.65
55187;BME280;55457;52.002;5.464;2023-12-04T05:40:36;100687.03;;;20.45;40.42
55187;BME280;55457;52.002;5.464;2023-12-04T05:43:02;100674.56;;;20.44;40.40
55187;BME280;55457;52.002;5.464;2023-12-04T05:45:27;100677.25;;;20.44;40.87
55187;BME280;55457;52.002;5.464;2023-12-04T05:47:52;100666.44;;;20.44;40.48
55187;BME280;55457;52.002;5.464;2023-12-04T05:50:18;100667.25;;;20.45;40.66
55187;BME280;55457;52.002;5.464;2023-12-04T05:52:43;100663.72;;;20.44;40.56
55187;BME280;55457;52.002;5.464;2023-12-04T05:55:10;100666.44;;;20.44;40.66
55187;BME280;55457;52.002;5.464;2023-12-04T05:57:35;100664.81;;;20.43;40.50
55187;BME280;55457;52.002;5.464;2023-12-04T06:00:00;100651.28;;;20.43;40.42
55187;BME280;55457;52.002;5.464;2023-12-04T06:02:26;100660.22;;;20.44;40.51
55187;BME280;55457;52.002;5.464;2023-12-04T06:04:55;100653.97;;;20.43;40.40
55187;BME280;55457;52.002;5.464;2023-12-04T06:07:20;100665.88;;;20.42;40.67
55187;BME280;55457;52.002;5.464;2023-12-04T06:09:45;100659.66;;;20.42;40.26
55187;BME280;55457;52.002;5.464;2023-12-04T06:12:11;100659.66;;;20.42;40.55
55187;BME280;55457;52.002;5.464;2023-12-04T06:14:36;100665.06;;;20.42;40.40
55187;BME280;55457;52.002;5.464;2023-12-04T06:17:01;100660.47;;;20.42;40.27
55187;BME280;55457;52.002;5.464;2023-12-04T06:19:27;100665.28;;;20.40;40.09
55187;BME280;55457;52.002;5.464;2023-12-04T06:21:53;100652.84;;;20.39;40.06
55187;BME280;55457;52.002;5.464;2023-12-04T06:24:19;100651.75;;;20.40;40.26
55187;BME280;55457;52.002;5.464;2023-12-04T06:26:48;100640.94;;;20.40;40.23
55187;BME280;55457;52.002;5.464;2023-12-04T06:29:15;100642.00;;;20.39;40.02
55187;BME280;55457;52.002;5.464;2023-12-04T06:31:40;100640.13;;;20.40;40.15
55187;BME280;55457;52.002;5.464;2023-12-04T06:34:06;100625.19;;;20.37;40.15
55187;BME280;55457;52.002;5.464;2023-12-04T06:36:37;100633.88;;;20.39;40.08
55187;BME280;55457;52.002;5.464;2023-12-04T06:39:05;100621.44;;;20.38;40.13
55187;BME280;55457;52.002;5.464;2023-12-04T06:41:32;100621.44;;;20.38;40.06
55187;BME280;55457;52.002;5.464;2023-12-04T06:43:58;100614.38;;;20.37;40.10
55187;BME280;55457;52.002;5.464;2023-12-04T06:46:26;100613.31;;;20.38;40.22
55187;BME280;55457;52.002;5.464;2023-12-04T06:48:54;100606.81;;;20.39;40.23
55187;BME280;55457;52.002;5.464;2023-12-04T06:51:22;100604.09;;;20.39;40.85
55187;BME280;55457;52.002;5.464;2023-12-04T06:53:47;100605.19;;;20.38;41.33
55187;BME280;55457;52.002;5.464;2023-12-04T06:56:12;100591.09;;;20.36;41.66
55187;BME280;55457;52.002;5.464;2023-12-04T06:58:38;100592.41;;;20.33;41.63
55187;BME280;55457;52.002;5.464;2023-12-04T07:01:03;100586.66;;;20.30;41.95
55187;BME280;55457;52.002;5.464;2023-12-04T07:03:29;100583.88;;;20.25;42.04
55187;BME280;55457;52.002;5.464;2023-12-04T07:05:54;100588.25;;;20.26;42.24
55187;BME280;55457;52.002;5.464;2023-12-04T07:08:19;100582.25;;;20.24;42.26
55187;BME280;55457;52.002;5.464;2023-12-04T07:10:45;100581.44;;;20.23;42.19
55187;BME280;55457;52.002;5.464;2023-12-04T07:13:10;100575.19;;;20.23;42.26
55187;BME280;55457;52.002;5.464;2023-12-04T07:15:38;100569.78;;;20.23;42.46
55187;BME280;55457;52.002;5.464;2023-12-04T07:18:03;100576.81;;;20.24;42.46
55187;BME280;55457;52.002;5.464;2023-12-04T07:20:29;100565.44;;;20.22;42.51
55187;BME280;55457;52.002;5.464;2023-12-04T07:22:54;100571.41;;;20.24;42.38
55187;BME280;55457;52.002;5.464;2023-12-04T07:25:19;100579.78;;;20.22;42.64
55187;BME280;55457;52.002;5.464;2023-12-04T07:27:45;100575.19;;;20.23;42.51
55187;BME280;55457;52.002;5.464;2023-12-04T07:30:11;100589.53;;;20.23;42.22
55187;BME280;55457;52.002;5.464;2023-12-04T07:32:37;100576.00;;;20.23;42.02
55187;BME280;55457;52.002;5.464;2023-12-04T07:35:04;100568.16;;;20.22;42.17
55187;BME280;55457;52.002;5.464;2023-12-04T07:37:29;100573.56;;;20.22;42.17
55187;BME280;55457;52.002;5.464;2023-12-04T07:39:56;100567.81;;;20.18;42.46
55187;BME280;55457;52.002;5.464;2023-12-04T07:42:22;100568.97;;;20.22;42.36
55187;BME280;55457;52.002;5.464;2023-12-04T07:44:47;100563.81;;;20.21;42.37
55187;BME280;55457;52.002;5.464;2023-12-04T07:47:12;100571.94;;;20.21;42.32
55187;BME280;55457;52.002;5.464;2023-12-04T07:49:38;100568.63;;;20.19;42.31
55187;BME280;55457;52.002;5.464;2023-12-04T07:52:04;100571.94;;;20.21;42.10
55187;BME280;55457;52.002;5.464;2023-12-04T07:54:29;100571.94;;;20.21;42.13
55187;BME280;55457;52.002;5.464;2023-12-04T07:56:54;100565.69;;;20.20;42.03
55187;BME280;55457;52.002;5.464;2023-12-04T07:59:20;100559.44;;;20.20;42.43
55187;BME280;55457;52.002;5.464;2023-12-04T08:01:45;100560.28;;;20.20;41.82
55187;BME280;55457;52.002;5.464;2023-12-04T08:04:10;100565.38;;;20.17;41.81
55187;BME280;55457;52.002;5.464;2023-12-04T08:06:36;100565.13;;;20.18;41.94
55187;BME280;55457;52.002;5.464;2023-12-04T08:09:01;100574.88;;;20.19;41.83
55187;BME280;55457;52.002;5.464;2023-12-04T08:11:27;100567.00;;;20.18;41.64
55187;BME280;55457;52.002;5.464;2023-12-04T08:13:53;100568.63;;;20.19;41.44
55187;BME280;55457;52.002;5.464;2023-12-04T08:16:18;100565.94;;;20.19;41.70
55187;BME280;55457;52.002;5.464;2023-12-04T08:18:45;100572.16;;;20.19;41.66
55187;BME280;55457;52.002;5.464;2023-12-04T08:21:10;100569.44;;;20.19;41.50
55187;BME280;55457;52.002;5.464;2023-12-04T08:23:36;100554.28;;;20.18;41.30
55187;BME280;55457;52.002;5.464;2023-12-04T08:26:02;100567.00;;;20.18;41.56
55187;BME280;55457;52.002;5.464;2023-12-04T08:28:27;100555.38;;;20.17;41.31
55187;BME280;55457;52.002;5.464;2023-12-04T08:30:53;100555.63;;;20.16;41.12
55187;BME280;55457;52.002;5.464;2023-12-04T08:33:18;100560.44;;;20.14;41.44
55187;BME280;55457;52.002;5.464;2023-12-04T08:35:45;100560.97;;;20.11;41.92
55187;BME280;55457;52.002;5.464;2023-12-04T08:38:11;100554.72;;;20.10;41.76
55187;BME280;55457;52.002;5.464;2023-12-04T08:40:36;100551.19;;;20.10;41.82
55187;BME280;55457;52.002;5.464;2023-12-04T08:43:02;100547.44;;;20.11;41.62
55187;BME280;55457;52.002;5.464;2023-12-04T08:45:29;100537.44;;;20.11;41.49
55187;BME280;55457;52.002;5.464;2023-12-04T08:47:54;100535.53;;;20.12;41.80
55187;BME280;55457;52.002;5.464;2023-12-04T08:50:20;100525.78;;;20.11;41.64
55187;BME280;55457;52.002;5.464;2023-12-04T08:52:45;100520.38;;;20.11;41.70
55187;BME280;55457;52.002;5.464;2023-12-04T08:55:10;100517.69;;;20.11;41.95
55187;BME280;55457;52.002;5.464;2023-12-04T08:57:37;100524.72;;;20.12;42.01
55187;BME280;55457;52.002;5.464;2023-12-04T09:00:03;100518.22;;;20.13;41.62
55187;BME280;55457;52.002;5.464;2023-12-04T09:02:29;100523.16;;;20.16;41.79
55187;BME280;55457;52.002;5.464;2023-12-04T09:04:55;100518.31;;;20.18;41.67
55187;BME280;55457;52.002;5.464;2023-12-04T09:07:21;100517.22;;;20.19;41.72
55187;BME280;55457;52.002;5.464;2023-12-04T09:09:46;100505.31;;;20.20;41.66
55187;BME280;55457;52.002;5.464;2023-12-04T09:12:11;100503.22;;;20.22;41.53
55187;BME280;55457;52.002;5.464;2023-12-04T09:14:37;100495.91;;;20.22;41.36
55187;BME280;55457;52.002;5.464;2023-12-04T09:17:02;100504.84;;;20.23;41.46
55187;BME280;55457;52.002;5.464;2023-12-04T09:19:28;100501.88;;;20.24;41.64
55187;BME280;55457;52.002;5.464;2023-12-04T09:21:55;100506.47;;;20.24;41.42
55187;BME280;55457;52.002;5.464;2023-12-04T09:24:20;100500.25;;;20.23;41.50
55187;BME280;55457;52.002;5.464;2023-12-04T09:26:45;100495.97;;;20.27;41.48
55187;BME280;55457;52.002;5.464;2023-12-04T09:29:11;100497.59;;;20.28;41.32
55187;BME280;55457;52.002;5.464;2023-12-04T09:31:37;100498.41;;;20.29;41.39
55187;BME280;55457;52.002;5.464;2023-12-04T09:34:03;100488.13;;;20.26;41.19
55187;BME280;55457;52.002;5.464;2023-12-04T09:36:28;100490.56;;;20.27;41.04
55187;BME280;55457;52.002;5.464;2023-12-04T09:38:54;100500.88;;;20.30;41.00
55187;BME280;55457;52.002;5.464;2023-12-04T09:41:20;100502.53;;;20.31;41.08
55187;BME280;55457;52.002;5.464;2023-12-04T09:43:46;100491.38;;;20.28;40.94
55187;BME280;55457;52.002;5.464;2023-12-04T09:46:12;100506.88;;;20.32;40.80
55187;BME280;55457;52.002;5.464;2023-12-04T09:48:40;100505.72;;;20.28;40.68
55187;BME280;55457;52.002;5.464;2023-12-04T09:51:08;100505.78;;;20.33;40.72
55187;BME280;55457;52.002;5.464;2023-12-04T09:53:35;100505.78;;;20.33;40.72
55187;BME280;55457;52.002;5.464;2023-12-04T09:56:02;100499.31;;;20.34;40.81
55187;BME280;55457;52.002;5.464;2023-12-04T09:58:29;100497.19;;;20.37;40.80
55187;BME280;55457;52.002;5.464;2023-12-04T10:00:56;100498.56;;;20.39;40.88
55187;BME280;55457;52.002;5.464;2023-12-04T10:03:21;100491.25;;;20.40;40.82
55187;BME280;55457;52.002;5.464;2023-12-04T10:05:48;100485.59;;;20.41;40.36
55187;BME280;55457;52.002;5.464;2023-12-04T10:08:14;100488.88;;;20.43;40.42
55187;BME280;55457;52.002;5.464;2023-12-04T10:10:39;100479.41;;;20.46;40.18
55187;BME280;55457;52.002;5.464;2023-12-04T10:13:05;100472.63;;;20.43;40.17
55187;BME280;55457;52.002;5.464;2023-12-04T10:15:31;100463.78;;;20.48;40.11
55187;BME280;55457;52.002;5.464;2023-12-04T10:17:57;100462.16;;;20.47;40.20
55187;BME280;55457;52.002;5.464;2023-12-04T10:20:23;100463.78;;;20.48;40.16
55187;BME280;55457;52.002;5.464;2023-12-04T10:23:00;100467.84;;;20.50;40.07
55187;BME280;55457;52.002;5.464;2023-12-04T10:25:28;100463.25;;;20.51;40.14
55187;BME280;55457;52.002;5.464;2023-12-04T10:28:06;100462.44;;;20.50;40.43
55187;BME280;55457;52.002;5.464;2023-12-04T10:30:32;100454.31;;;20.50;40.41
55187;BME280;55457;52.002;5.464;2023-12-04T10:32:59;100452.19;;;20.52;40.26
55187;BME280;55457;52.002;5.464;2023-12-04T10:35:30;100446.78;;;20.52;40.36
55187;BME280;55457;52.002;5.464;2023-12-04T10:37:59;100441.59;;;20.51;40.27
55187;BME280;55457;52.002;5.464;2023-12-04T10:40:25;100424.53;;;20.50;40.29
55187;BME280;55457;52.002;5.464;2023-12-04T10:42:50;100421.84;;;20.50;40.18
55187;BME280;55457;52.002;5.464;2023-12-04T10:45:16;100426.19;;;20.51;40.29
55187;BME280;55457;52.002;5.464;2023-12-04T10:47:43;100419.72;;;20.52;40.31
55187;BME280;55457;52.002;5.464;2023-12-04T10:50:10;100417.81;;;20.53;40.40
55187;BME280;55457;52.002;5.464;2023-12-04T10:52:38;100397.47;;;20.50;40.22
55187;BME280;55457;52.002;5.464;2023-12-04T10:55:05;100402.94;;;20.55;40.21
55187;BME280;55457;52.002;5.464;2023-12-04T10:57:36;100402.41;;;20.53;40.16
55187;BME280;55457;52.002;5.464;2023-12-04T11:00:04;100402.41;;;20.53;40.41
55187;BME280;55457;52.002;5.464;2023-12-04T11:02:33;100392.88;;;20.51;39.95
55187;BME280;55457;52.002;5.464;2023-12-04T11:05:07;100387.78;;;20.54;40.08
55187;BME280;55457;52.002;5.464;2023-12-04T11:07:40;100375.31;;;20.53;40.13
55187;BME280;55457;52.002;5.464;2023-12-04T11:10:10;100374.50;;;20.53;40.26
55187;BME280;55457;52.002;5.464;2023-12-04T11:12:40;100366.13;;;20.54;40.23
55187;BME280;55457;52.002;5.464;2023-12-04T11:15:08;100371.81;;;20.53;40.22
55187;BME280;55457;52.002;5.464;2023-12-04T11:17:37;100373.44;;;20.54;40.05
55187;BME280;55457;52.002;5.464;2023-12-04T11:20:11;100371.53;;;20.54;40.19
55187;BME280;55457;52.002;5.464;2023-12-04T11:22:38;100366.94;;;20.55;39.85
55187;BME280;55457;52.002;5.464;2023-12-04T11:25:07;100356.91;;;20.55;40.12
55187;BME280;55457;52.002;5.464;2023-12-04T11:27:34;100346.34;;;20.54;40.12
55187;BME280;55457;52.002;5.464;2023-12-04T11:30:00;100347.16;;;20.54;40.15
55187;BME280;55457;52.002;5.464;2023-12-04T11:32:28;100343.16;;;20.57;40.17
55187;BME280;55457;52.002;5.464;2023-12-04T11:34:59;100339.38;;;20.58;40.10
55187;BME280;55457;52.002;5.464;2023-12-04T11:37:25;100341.81;;;20.59;39.75
55187;BME280;55457;52.002;5.464;2023-12-04T11:39:51;100342.63;;;20.60;39.99
55187;BME280;55457;52.002;5.464;2023-12-04T11:42:23;100332.59;;;20.61;40.02
55187;BME280;55457;52.002;5.464;2023-12-04T11:44:49;100335.31;;;20.61;39.91
55187;BME280;55457;52.002;5.464;2023-12-04T11:47:15;100333.13;;;20.57;39.75
55187;BME280;55457;52.002;5.464;2023-12-04T11:49:40;100327.19;;;20.61;39.62
55187;BME280;55457;52.002;5.464;2023-12-04T11:52:06;100331.78;;;20.60;39.83
55187;BME280;55457;52.002;5.464;2023-12-04T11:57:23;100343.44;;;20.61;39.89
55187;BME280;55457;52.002;5.464;2023-12-04T12:02:36;100319.34;;;20.59;40.05
55187;BME280;55457;52.002;5.464;2023-12-04T12:05:01;100321.50;;;20.57;40.29
55187;BME280;55457;52.002;5.464;2023-12-04T12:07:27;100326.59;;;20.53;40.25
55187;BME280;55457;52.002;5.464;2023-12-04T12:09:52;100315.72;;;20.48;40.29
55187;BME280;55457;52.002;5.464;2023-12-04T12:12:18;100312.44;;;20.46;40.39
55187;BME280;55457;52.002;5.464;2023-12-04T12:14:43;100310.22;;;20.43;40.71
55187;BME280;55457;52.002;5.464;2023-12-04T12:17:09;100306.97;;;20.41;40.37
55187;BME280;55457;52.002;5.464;2023-12-04T12:19:34;100301.56;;;20.41;40.92
55187;BME280;55457;52.002;5.464;2023-12-04T12:22:00;100299.91;;;20.40;40.92
55187;BME280;55457;52.002;5.464;2023-12-04T12:24:25;100301.56;;;20.41;40.71
55187;BME280;55457;52.002;5.464;2023-12-04T12:26:51;100295.06;;;20.42;40.88
55187;BME280;55457;52.002;5.464;2023-12-04T12:29:17;100295.88;;;20.43;40.92
55187;BME280;55457;52.002;5.464;2023-12-04T12:31:42;100292.63;;;20.46;40.95
55187;BME280;55457;52.002;5.464;2023-12-04T12:34:08;100288.06;;;20.46;40.59
55187;BME280;55457;52.002;5.464;2023-12-04T12:36:33;100286.41;;;20.45;40.85
55187;BME280;55457;52.002;5.464;2023-12-04T12:39:02;100276.19;;;20.47;41.08
55187;BME280;55457;52.002;5.464;2023-12-04T12:41:29;100268.88;;;20.48;40.94
55187;BME280;55457;52.002;5.464;2023-12-04T12:43:55;100267.25;;;20.47;40.72
55187;BME280;55457;52.002;5.464;2023-12-04T12:46:21;100268.88;;;20.48;41.14
55187;BME280;55457;52.002;5.464;2023-12-04T12:48:47;100249.13;;;20.47;40.99